createdAt,value
2019-02-06T00:02:41.360Z,13.10
2019-02-06T00:05:24.430Z,12.50
2019-02-06T00:08:16.201Z,12.63
2019-02-06T00:11:11.337Z,12.60
2019-02-06T00:13:45.330Z,13.57
2019-02-06T00:16:38.919Z,11.93
2019-02-06T00:19:15.313Z,13.33
2019-02-06T00:21:52.217Z,13.43
2019-02-06T00:24:30.223Z,12.67
2019-02-06T00:27:16.847Z,12.00
2019-02-06T00:33:15.275Z,13.10
2019-02-06T00:35:47.289Z,11.87
2019-02-06T00:38:20.151Z,12.40
2019-02-06T00:40:54.805Z,10.80
2019-02-06T00:43:51.224Z,11.97
2019-02-06T00:46:44.728Z,12.50
2019-02-06T00:49:26.930Z,11.07
2019-02-06T00:52:00.432Z,11.03
2019-02-06T00:54:38.979Z,11.37
2019-02-06T00:57:20.048Z,11.50
2019-02-06T01:00:06.237Z,10.70
2019-02-06T01:02:49.305Z,12.03
2019-02-06T01:05:38.367Z,11.10
2019-02-06T01:08:19.518Z,11.40
2019-02-06T01:10:59.241Z,11.30
2019-02-06T01:17:20.639Z,10.17
2019-02-06T01:20:08.826Z,9.70
2019-02-06T01:22:50.279Z,10.73
2019-02-06T01:25:44.974Z,11.33
2019-02-06T01:28:33.170Z,11.67
2019-02-06T01:31:16.442Z,10.23
2019-02-06T01:34:07.045Z,12.20
2019-02-06T01:43:33.077Z,11.40
2019-02-06T01:46:09.561Z,13.53
2019-02-06T01:57:06.803Z,12.50
2019-02-06T01:59:25.542Z,12.57
2019-02-06T02:02:47.243Z,12.30
2019-02-06T02:05:25.592Z,11.33
2019-02-06T02:08:06.420Z,11.13
2019-02-06T02:10:58.719Z,12.40
2019-02-06T02:16:56.085Z,9.40
2019-02-06T02:19:45.306Z,11.63
2019-02-06T02:22:49.712Z,9.80
2019-02-06T02:25:38.369Z,10.73
2019-02-06T02:28:25.307Z,11.30
2019-02-06T02:31:23.588Z,10.40
2019-02-06T02:33:59.521Z,11.53
2019-02-06T02:36:40.771Z,11.73
2019-02-06T02:39:29.247Z,10.63
2019-02-06T02:45:37.914Z,10.57
2019-02-06T02:51:13.785Z,10.93
2019-02-06T02:54:05.904Z,11.90
2019-02-06T02:57:09.888Z,11.60
2019-02-06T02:59:46.994Z,10.90
2019-02-06T03:03:25.558Z,10.70
2019-02-06T03:06:28.208Z,10.53
2019-02-06T03:09:22.040Z,11.33
2019-02-06T03:12:13.874Z,11.50
2019-02-06T03:15:22.358Z,11.90
2019-02-06T03:18:07.955Z,10.10
2019-02-06T03:20:40.863Z,10.37
2019-02-06T03:23:22.595Z,10.77
2019-02-06T03:26:05.859Z,10.33
2019-02-06T03:28:57.554Z,10.80
2019-02-06T03:31:23.862Z,11.37
2019-02-06T03:34:10.382Z,10.50
2019-02-06T03:36:50.798Z,9.50
2019-02-06T03:39:24.248Z,9.93
2019-02-06T03:42:05.794Z,11.00
2019-02-06T03:44:38.408Z,11.00
2019-02-06T03:47:19.471Z,10.93
2019-02-06T03:50:05.316Z,10.50
2019-02-06T03:52:42.558Z,9.43
2019-02-06T03:55:16.169Z,10.77
2019-02-06T03:57:55.240Z,10.57
2019-02-06T04:00:41.746Z,10.10
2019-02-06T04:03:15.114Z,10.13
2019-02-06T04:05:59.959Z,9.23
2019-02-06T04:08:33.634Z,9.57
2019-02-06T04:11:07.425Z,11.17
2019-02-06T04:13:55.909Z,10.17
2019-02-06T04:16:40.343Z,10.15
2019-02-06T04:19:17.549Z,9.03
2019-02-06T04:21:53.756Z,8.23
2019-02-06T04:24:38.723Z,9.90
2019-02-06T04:27:26.409Z,9.97
2019-02-06T04:30:15.438Z,9.60
2019-02-06T04:32:54.142Z,9.40
2019-02-06T04:35:35.747Z,10.30
2019-02-06T04:38:12.238Z,10.40
2019-02-06T04:40:50.418Z,11.50
2019-02-06T04:44:08.365Z,9.57
2019-02-06T04:47:09.571Z,10.43
2019-02-06T04:49:57.322Z,9.60
2019-02-06T04:52:40.226Z,8.90
2019-02-06T04:55:32.483Z,11.00
2019-02-06T04:58:13.890Z,8.97
2019-02-06T05:01:01.092Z,10.40
2019-02-06T05:07:20.899Z,9.70
2019-02-06T05:10:22.149Z,11.13
2019-02-06T05:13:22.607Z,10.63
2019-02-06T05:16:07.463Z,11.00
2019-02-06T05:19:09.690Z,10.27
2019-02-06T05:22:12.193Z,10.20
2019-02-06T05:25:41.404Z,10.47
2019-02-06T05:28:37.261Z,11.60
2019-02-06T05:31:37.315Z,10.70
2019-02-06T05:41:20.581Z,12.07
2019-02-06T05:44:02.512Z,9.00
2019-02-06T05:46:54.424Z,10.27
2019-02-06T05:49:30.961Z,10.00
2019-02-06T05:52:06.344Z,12.30
2019-02-06T05:54:43.529Z,11.53
2019-02-06T05:57:28.291Z,9.10
2019-02-06T06:00:43.623Z,12.15
2019-02-06T06:03:36.338Z,11.57
2019-02-06T06:06:22.489Z,11.63
2019-02-06T06:09:01.887Z,11.20
2019-02-06T06:12:08.569Z,9.40
2019-02-06T06:14:54.369Z,10.60
2019-02-06T06:17:50.626Z,11.00
2019-02-06T06:20:46.586Z,11.73
2019-02-06T06:23:51.850Z,11.90
2019-02-06T06:26:50.621Z,11.10
2019-02-06T06:30:32.576Z,10.77
2019-02-06T06:34:33.165Z,12.87
2019-02-06T06:40:53.417Z,10.70
2019-02-06T06:47:19.831Z,11.20
2019-02-06T06:53:57.620Z,13.67
2019-02-06T06:57:19.448Z,11.57
2019-02-06T07:03:33.660Z,11.70
2019-02-06T07:06:42.870Z,11.10
2019-02-06T07:16:34.452Z,10.70
2019-02-06T07:19:29.826Z,12.80
2019-02-06T07:22:42.652Z,9.73
2019-02-06T07:26:39.626Z,11.90
2019-02-06T07:28:58.315Z,10.30
2019-02-06T07:32:23.582Z,11.48
2019-02-06T07:35:32.052Z,10.17
2019-02-06T07:46:26.193Z,10.93
2019-02-06T07:49:30.973Z,10.70
2019-02-06T07:55:59.206Z,11.40
2019-02-06T07:58:57.719Z,10.83
2019-02-06T08:02:21.714Z,9.43
2019-02-06T08:05:30.443Z,11.07
2019-02-06T08:11:55.963Z,10.50
2019-02-06T08:15:06.822Z,11.30
2019-02-06T08:18:18.456Z,11.70
2019-02-06T08:25:53.536Z,9.97
2019-02-06T08:29:26.682Z,10.70
2019-02-06T08:32:53.358Z,10.93
2019-02-06T08:36:30.663Z,10.47
2019-02-06T08:40:08.450Z,10.13
2019-02-06T08:52:24.970Z,11.28
2019-02-06T08:55:28.502Z,11.80
2019-02-06T08:58:31.234Z,12.33
2019-02-06T09:01:49.418Z,11.17
2019-02-06T09:05:10.393Z,10.23
2019-02-06T09:08:35.177Z,10.07
2019-02-06T09:12:00.666Z,10.80
2019-02-06T09:22:52.881Z,10.07
2019-02-06T09:25:57.382Z,11.27
2019-02-06T09:29:34.962Z,10.00
2019-02-06T09:32:28.560Z,11.17
2019-02-06T09:36:04.826Z,10.40
2019-02-06T09:42:14.055Z,11.13
2019-02-06T09:45:19.274Z,9.80
2019-02-06T09:51:34.913Z,10.57
2019-02-06T09:54:42.619Z,8.23
2019-02-06T10:04:27.395Z,9.93
2019-02-06T10:07:34.554Z,10.10
2019-02-06T10:10:45.259Z,10.47
2019-02-06T10:17:36.208Z,9.47
2019-02-06T10:21:02.337Z,11.63
2019-02-06T10:24:14.673Z,9.93
2019-02-06T10:41:56.307Z,10.00
2019-02-06T10:52:48.234Z,11.37
2019-02-06T10:59:40.987Z,11.80
2019-02-06T11:02:51.640Z,10.70
2019-02-06T11:06:07.186Z,9.37
2019-02-06T11:13:01.615Z,9.10
2019-02-06T11:16:20.111Z,9.00
2019-02-06T11:19:06.168Z,9.57
2019-02-06T11:22:12.075Z,8.97
2019-02-06T11:25:26.936Z,10.27
2019-02-06T11:28:26.395Z,9.40
2019-02-06T11:31:29.876Z,10.13
2019-02-06T11:38:08.474Z,10.23
2019-02-06T11:40:53.401Z,10.77
2019-02-06T11:43:59.376Z,9.90
2019-02-06T11:47:18.646Z,11.23
2019-02-06T11:50:36.899Z,10.37
2019-02-06T11:53:33.502Z,8.83
2019-02-06T11:56:38.948Z,9.80
2019-02-06T11:59:31.017Z,10.10
2019-02-06T12:02:19.019Z,10.03
2019-02-06T12:05:36.726Z,10.93
2019-02-06T12:09:01.957Z,8.80
2019-02-06T12:12:08.642Z,9.43
2019-02-06T12:15:17.752Z,9.43
2019-02-06T12:18:37.853Z,9.67
2019-02-06T12:21:46.890Z,10.50
2019-02-06T12:29:13.698Z,10.00
2019-02-06T12:32:51.515Z,9.00
2019-02-06T12:40:00.595Z,10.00
2019-02-06T12:43:21.793Z,9.83
2019-02-06T12:46:53.230Z,10.10
2019-02-06T12:57:37.453Z,9.67
2019-02-06T13:01:03.568Z,9.53
2019-02-06T13:35:28.891Z,8.60
2019-02-06T13:38:29.414Z,9.87
2019-02-06T13:45:17.818Z,8.73
2019-02-06T13:48:39.164Z,9.87
2019-02-06T13:51:48.249Z,9.73
2019-02-06T13:54:54.061Z,9.97
2019-02-06T13:57:52.990Z,10.00
2019-02-06T14:01:01.483Z,8.77
2019-02-06T14:11:27.051Z,8.70
2019-02-06T14:14:52.888Z,10.57
2019-02-06T14:18:16.163Z,9.20
2019-02-06T14:21:39.781Z,8.07
2019-02-06T14:29:03.242Z,9.57
2019-02-06T15:10:15.607Z,10.03
2019-02-06T15:13:58.976Z,9.13
2019-02-06T15:17:37.783Z,8.40
2019-02-06T15:28:40.480Z,8.00
2019-02-06T15:32:15.494Z,9.07
2019-02-06T15:39:29.003Z,8.47
2019-02-06T16:01:37.957Z,7.80
2019-02-06T16:05:27.359Z,7.90
2019-02-06T16:09:39.546Z,9.00
2019-02-06T16:20:50.114Z,7.50
2019-02-06T21:13:59.660Z,12.37
2019-02-06T21:39:43.650Z,11.90
2019-02-06T21:46:21.232Z,13.20
2019-02-06T21:49:06.602Z,12.63
2019-02-06T21:55:08.686Z,13.27
2019-02-06T22:01:44.429Z,13.40
2019-02-06T22:04:59.885Z,14.23
2019-02-06T22:08:31.393Z,12.80
2019-02-06T22:11:03.585Z,12.10
2019-02-06T22:14:01.180Z,13.10
2019-02-06T22:16:42.086Z,11.20
2019-02-06T22:19:55.436Z,12.20
2019-02-06T22:22:45.352Z,13.08
2019-02-06T22:29:10.839Z,13.90
2019-02-06T22:32:24.827Z,13.27
2019-02-06T22:35:51.180Z,16.10
2019-02-06T22:38:24.968Z,11.60
2019-02-06T22:41:22.587Z,13.07
2019-02-06T22:44:09.435Z,13.20
2019-02-06T22:46:58.179Z,14.13
2019-02-06T22:49:51.285Z,13.13
2019-02-06T22:53:24.930Z,14.77
2019-02-06T22:56:33.351Z,13.93
2019-02-06T22:59:36.825Z,15.40
2019-02-06T23:02:56.130Z,14.85
2019-02-06T23:05:56.428Z,16.77
2019-02-06T23:12:12.783Z,15.70
2019-02-06T23:15:17.272Z,16.73
2019-02-06T23:18:35.248Z,17.43
2019-02-06T23:21:14.024Z,16.40
2019-02-06T23:24:11.584Z,15.73
2019-02-06T23:27:35.958Z,18.80
2019-02-06T23:30:47.708Z,19.17
2019-02-06T23:37:26.090Z,17.10
2019-02-06T23:40:09.282Z,18.17
2019-02-06T23:43:32.956Z,17.17
2019-02-06T23:45:51.128Z,16.30
2019-02-06T23:48:29.451Z,16.20
2019-02-06T23:51:06.821Z,17.73
2019-02-06T23:54:06.644Z,17.00
2019-02-06T23:56:41.907Z,18.17
